Terminal Aerodrome Forecast
Issued by NWS

Current Version | Previous Version | Text Only | Print | Product List | Glossary On
Versions: 1 2 3 4 5 6 7 8 9 10 11 12 13 14 15 16
000
FTUS42 KGSP 271132
TAFGMU
TAF
KGMU 271132Z 2712/2812 22004KT P6SM SKC
     FM271800 21007KT P6SM SCT060 SCT250
      TEMPO 2719/2723 VRB10G15KT 4SM -TSRA BKN060CB BKN120 BKN200
     FM280200 23004KT P6SM SCT060
     FM280800 23003KT P6SM FEW200=

USA.gov is the U.S. government's official web portal to all federal, state and local government web resources and services.